South Roxana, IL (62087)

3:01 PM CST on February 28, 2015 (GMT -0600)
Wood River (West End) | Change Station
CLOSE
Current Station
Personal Weather Station
Location: Wood River, IL
Elevation: 446 ft
Nearby Weather Stations
Active Advisory: Winter Storm Warning

Elev 446 ft 38.87 °N, 90.10 °W | Updated 2 minutes ago

Snow
Snow
27.3 °F
Feels Like 27 °F
N
2.7
Wind Variable Wind from South

Today
High -- | Low -- °F
--% Chance of Precip.
Yesterday
High -- | Low -- °F
Precip. -- in
6:34 AM 5:51 PM
Waxing Gibbous, 80% visible
Pressure 30.56 in
Visibility 10.0 miles
Clouds Scattered Clouds 4300 ft
Mostly Cloudy 6000 ft
Overcast 7000 ft
Windchill 27 °F
Dew Point 22 °F
Humidity 79%
Rainfall 0.00 in
Snow Depth Not available.
UV 2 out of 12
Pollen .60 out of 12
Air Quality Not available.
Flu Activity Not available.
METAR KALN 281845Z 13009KT 10SM SCT043 BKN060 OVC070 M03/M13 A3056

More Conditions Fewer Conditions

Pressure 30.56 in
Visibility 10.0 miles
Clouds Scattered Clouds 4300 ft
Mostly Cloudy 6000 ft
Overcast 7000 ft
Windchill 27 °F
Dew Point 22 °F
Humidity 79%
Rainfall 0.00 in
Snow Depth Not available.
UV 2 out of 12
Pollen .60 out of 12
Air Quality Not available.
Flu Activity Not available.
METAR KALN 281845Z 13009KT 10SM SCT043 BKN060 OVC070 M03/M13 A3056

More Conditions Fewer Conditions

10-Day Weather Forecast

Almanac

Astronomy

Feb. 28, 2015 Rise Set
Actual Time
Civil Twilight
Nautical Twilight
Astronomical Twilight
Moon
Length of Visible Light
Length of Day
Tomorrow will be .
, % of the Moon is Illuminated

Today's Extremes

State Highs State Lows

Community

WunderPhotos

Upload Photos

1,801,150 photos uploaded!

WunderBlogs® & News

Nearby

Air Quality

  Air Quality AQ Index Pollutant
Not available.

Snow Depth

Station Depth Elevation

Earthquake Activity

City Distance Mag. Time & Date
Minimum magnitude displayed is 2.5.

Coastal Water Temperatures

Place Temperature

Nearby Weather Stations

Winter Storm Warning
Statement as of 12:18 PM CST on February 28, 2015

... Winter Storm Warning remains in effect until 6 PM CST Sunday...

* timing... snow is expected to begin later this afternoon and
continue through the daylight hours of Sunday. Some sleet may
mix in with the snow on Sunday.

* Accumulations... 5 to 7 inches of snow.

* Winds... southeast 5 mph or less.

* Impacts... the wintry precipitation will result in hazardous
travel conditions... especially on bridges... overpasses... and
untreated roads. Parking lots and sidewalks will become
slippery as well.

Precautionary/preparedness actions...

A Winter Storm Warning means that 6 inches or more of snow is
expected. The rapid accumulation of snow will make travel
extremely difficult... if not impossible. If travel is necessary...
make sure to exercise caution. Begin your travel with a tank
full of gas... and carry a winter storm kit which includes a
shovel... flashlight... cellphone... and blankets of extra warm
clothing.